Pagrindinis puslapis
METAR-TAF:

METAR-TAF

Oro uostai :

Šel Mera, Ekvadoras

platuma: 01-30-19S, ilguma: 078-03-46W, Aukštis: 1056 m

Dabartinis oras

Ataskaita buvo paskelbta 1 valandą ir 0 minutes, ne 22:00 UTC
Vėjas 5 kt iš Šiaurės Vakarų, svyruoja nuo Vakarų ir Šiaurės
Temperatūra 21°C
Drėgmė 83%
Slėgis 1018 hPa
Matomumas 10 km arba daugiau
Išsisklaidę debesys ne aukštis 5000 ft
Apsiniaukę ne aukštis 8000 ft

METAR: SESM 052200Z 31005KT 280V350 9999 SCT050 OVC080 21/18 Q1018 RMK A3008

Laikas: 18:00 (23:00 UTC)


TAF: trūkstamas

Orai ataskaitas ir orų prognozės (METAR, TAF).

turimą stotys yra geltonos ir raudonos taškus žemėlapyje.

Perkelti pele per norėdami pamatyti stoties vardą.

Tada spustelėkite, norėdami matyti oro stebėjimo ir prognozės.

Norėdami pakeisti žemėlapį: spustelėkite ant žalios mygtukų su juodo kryžiaus žemyn,; žalią mygtuką su brūkšneliu, jei norite nutolinti; arba žalių rodyklių gretimoms žemėlapius.


METAR-TAF: